Date,TemperatureHighF,TemperatureAvgF,TemperatureLowF,DewpointHighF,DewpointAvgF,DewpointLowF,HumidityHigh,HumidityAvg,HumidityLow,PressureMaxIn,PressureMinIn,WindSpeedMaxMPH,WindSpeedAvgMPH,GustSpeedMaxMPH,PrecipitationSumIn
2013-1-1,31.4,26.0,17.5,29.0,22.2,13.0,93,85,73,30.06,29.96,4,1,11,0.00
2013-1-2,21.6,19.4,18.1,15.0,14.2,13.0,83,80,76,30.13,30.03,2,0,6,0.00
2013-1-6,37.1,34.2,31.5,32.0,30.5,29.0,94,86,76,30.18,29.94,7,1,9,0.04
2013-1-7,34.3,30.0,23.7,30.0,26.8,21.0,95,88,74,30.42,30.18,5,1,9,0.00
2013-1-8,41.9,25.6,12.5,28.0,20.6,11.0,94,83,54,30.31,30.22,5,1,6,0.09
2013-1-9,46.9,34.5,20.1,39.0,29.2,19.0,97,82,63,30.45,30.14,7,1,12,0.05
2013-1-10,41.6,32.7,21.0,30.0,26.3,20.0,95,79,59,30.59,30.29,3,1,7,0.00
2013-1-11,46.3,41.6,36.2,46.0,36.2,27.0,98,82,61,30.28,29.92,5,2,11,0.43
2013-1-12,58.5,50.8,38.1,55.0,49.5,38.0,98,95,85,30.07,29.95,3,1,6,0.02
2013-1-13,65.7,59.1,52.9,58.0,55.2,52.0,97,87,73,29.94,29.81,6,1,9,0.08
2013-1-14,55.5,32.6,26.3,55.0,27.5,22.0,97,82,72,30.38,29.86,9,2,19,0.05
2013-1-15,31.8,28.7,25.0,23.0,21.4,20.0,89,75,65,30.38,30.08,6,1,8,0.00
2013-1-16,35.0,31.9,30.3,31.0,27.6,22.0,92,84,72,30.08,29.84,5,1,10,0.00
2013-1-17,34.3,31.6,26.7,28.0,26.3,23.0,87,80,74,30.14,29.96,9,1,14,0.00
2013-1-18,31.2,24.0,16.8,22.0,14.4,7.0,88,67,57,30.45,30.16,10,2,16,0.00
2013-1-19,50.5,41.1,32.4,28.0,23.5,19.0,64,51,36,30.15,29.75,10,3,20,0.00
2013-1-20,45.6,29.9,20.8,32.0,18.3,11.0,75,63,48,30.13,29.69,16,3,24,0.00
2013-1-21,21.6,17.9,10.3,16.0,9.4,3.0,86,70,60,30.08,29.88,5,1,13,0.00
2013-1-22,11.0,6.9,4.3,3.0,-0.6,-3.0,85,72,53,30.21,29.99,10,2,15,0.00
2013-1-23,14.3,8.7,3.3,8.0,2.1,-2.0,90,75,55,30.22,30.03,9,1,10,0.00
2013-1-24,19.1,11.3,1.5,12.0,4.4,-1.0,90,76,42,30.51,30.02,12,1,19,0.00
2013-1-25,16.6,12.1,3.2,12.0,8.1,0.0,88,84,74,30.48,29.99,6,1,11,0.00
2013-1-26,27.4,19.7,15.0,22.0,16.5,12.0,94,87,72,30.40,30.04,3,0,8,0.00
2013-1-27,29.4,20.9,3.9,24.0,14.7,1.0,93,78,58,30.49,30.29,4,1,6,0.00
2013-1-28,45.7,37.8,27.7,45.0,36.8,24.0,98,96,87,30.28,29.95,4,1,6,0.45
2013-1-29,56.2,49.8,41.1,54.0,48.8,40.0,98,96,83,30.03,29.76,3,1,7,0.17
2013-1-30,60.4,55.5,51.4,56.0,51.6,45.0,96,87,75,29.74,29.16,8,3,16,0.38
2013-1-31,47.3,26.2,19.2,42.0,20.1,11.0,92,78,62,29.81,29.22,13,4,24,0.07
2013-2-1,18.8,15.1,11.3,12.0,8.4,5.0,89,75,58,30.26,29.80,9,2,17,0.00
2013-2-2,21.7,16.2,10.5,19.0,12.2,5.0,93,84,72,30.25,29.93,3,0,8,0.00
2013-2-3,23.7,19.7,16.7,19.0,15.1,11.0,94,83,63,29.95,29.80,6,1,10,0.00
2013-2-4,25.6,20.2,15.1,21.0,16.5,12.0,93,86,74,30.00,29.85,4,1,8,0.00
2013-2-5,29.7,24.4,21.6,25.0,21.4,20.0,93,88,80,29.91,29.80,2,0,5,0.00
2013-2-6,29.0,23.0,10.7,25.0,16.9,8.0,93,78,51,30.32,29.91,7,1,10,0.00
2013-2-7,41.8,27.5,8.9,28.0,20.1,6.0,91,75,56,30.29,29.95,5,2,10,0.02
2013-2-8,35.5,29.4,20.1,33.0,25.7,16.0,95,86,78,30.15,29.77,13,4,19,0.09
2013-2-9,30.6,21.6,12.0,19.0,15.6,10.0,92,79,56,30.38,30.16,12,2,14,0.00
2013-2-10,46.5,30.3,10.3,25.0,17.5,8.0,93,63,34,30.33,29.92,8,2,11,0.01
2013-2-11,54.1,41.4,34.0,45.0,34.4,25.0,97,77,56,29.91,29.64,9,3,20,0.07
2013-2-12,33.9,30.1,21.9,26.0,23.5,21.0,94,77,68,30.05,29.87,7,1,17,0.00
2013-2-13,38.4,28.4,20.4,28.0,24.2,19.0,95,84,67,29.91,29.68,5,0,8,0.00
2013-2-14,38.1,30.1,19.3,35.0,28.3,18.0,96,93,80,29.90,29.82,7,1,12,0.06
2013-2-15,36.8,32.1,24.4,32.0,25.4,19.0,86,76,63,30.05,29.87,7,1,11,0.00
2013-2-16,26.8,22.7,16.1,21.0,16.1,9.0,88,76,58,30.04,29.91,4,1,9,0.00
2013-2-17,21.4,17.1,7.0,16.0,10.3,4.0,91,75,56,30.21,29.90,8,1,20,0.00
2013-2-18,41.5,22.1,3.0,30.0,13.3,0.0,89,71,53,30.25,29.83,9,2,11,0.00
2013-2-19,43.0,33.1,18.8,38.0,28.1,13.0,93,82,62,29.90,29.61,10,3,19,0.29
2013-2-20,21.4,18.1,15.5,16.0,12.4,10.0,87,78,64,30.16,29.90,8,2,16,0.00
2013-2-21,21.4,18.2,10.7,15.0,13.6,8.0,92,82,73,30.29,30.13,9,2,13,0.00
2013-2-22,32.9,27.3,15.6,32.0,23.8,12.0,95,86,73,30.27,29.97,13,3,14,0.00
2013-2-23,39.1,33.0,28.4,35.0,30.7,25.0,97,91,76,29.99,29.85,2,0,7,0.03
2013-2-24,30.4,28.5,26.6,25.0,23.3,21.0,87,80,71,30.12,29.86,7,1,12,0.00
2013-2-25,40.7,30.1,20.7,27.0,23.3,19.0,95,78,51,30.21,30.07,4,0,7,0.00
2013-2-26,39.2,34.3,30.4,33.0,28.1,23.0,94,78,64,30.09,29.57,16,5,20,0.81
2013-2-27,43.0,36.5,32.7,38.0,34.4,31.0,97,92,81,29.64,29.54,12,2,15,0.17
2013-2-28,34.3,32.7,30.8,32.0,30.6,28.0,95,92,87,29.79,29.57,7,1,12,0.08
2013-3-1,30.7,27.1,24.4,29.0,24.4,21.0,94,89,85,29.96,29.79,6,2,11,0.00
2013-3-2,25.6,23.7,21.9,22.0,20.5,19.0,91,87,78,29.94,29.90,7,2,9,0.00
2013-3-3,26.9,23.5,20.3,22.0,19.9,17.0,92,86,79,29.98,29.89,7,2,12,0.00
2013-3-4,33.1,24.6,17.5,20.0,18.2,15.0,91,78,57,30.08,29.97,6,1,11,0.00
2013-3-5,41.5,26.8,12.1,25.0,18.6,10.0,93,74,43,30.08,29.70,12,2,14,0.04
2013-3-6,39.5,36.2,32.6,30.0,27.2,25.0,89,70,58,30.09,29.69,11,2,14,0.00
2013-3-7,40.5,33.9,30.6,32.0,29.9,27.0,93,85,64,30.28,30.09,9,2,13,0.00
2013-3-8,40.8,32.2,24.3,30.0,26.1,22.0,92,79,50,30.40,30.28,10,2,14,0.00
2013-3-9,53.4,36.3,21.9,31.0,26.4,21.0,95,71,40,30.41,30.16,4,0,6,0.00
2013-3-10,65.7,53.7,40.8,37.0,30.2,23.0,58,41,32,30.16,29.97,9,3,11,0.00
2013-3-11,59.7,53.2,45.9,46.0,35.4,32.0,94,53,39,29.97,29.66,10,3,13,0.37
2013-3-12,45.7,37.7,33.4,44.0,32.8,25.0,95,83,70,29.97,29.73,9,1,14,0.23
2013-3-13,33.3,29.4,24.7,28.0,24.1,16.0,93,81,59,30.08,29.88,7,2,16,0.00
2013-3-14,33.6,27.5,22.5,22.0,17.9,15.0,84,68,54,30.17,30.07,12,2,18,0.01
2013-3-15,41.9,33.0,21.5,34.0,27.3,18.0,95,80,65,30.09,29.82,7,1,17,0.02
2013-3-16,35.1,31.8,26.0,33.0,30.0,23.0,96,93,87,29.98,29.66,6,1,9,0.16
2013-3-17,33.7,28.2,23.2,25.0,21.3,18.0,91,76,57,30.20,29.98,7,1,9,0.03
2013-3-18,35.2,31.3,26.1,34.0,27.2,18.0,94,85,70,30.17,29.65,10,5,16,0.09
2013-3-19,36.9,31.6,26.2,36.0,25.5,18.0,97,79,58,29.90,29.66,14,3,18,0.14
2013-3-20,32.7,28.0,23.4,25.0,19.3,17.0,87,70,58,29.91,29.84,12,2,14,0.01
2013-3-21,27.3,22.4,15.0,23.0,16.6,11.0,92,78,62,29.86,29.81,10,2,14,0.00
2013-3-22,30.1,25.9,17.5,25.0,21.9,16.0,93,85,72,30.00,29.84,9,1,12,0.00
2013-3-23,37.2,26.3,15.4,25.0,20.1,13.0,93,79,59,30.05,29.96,7,1,10,0.02
2013-3-24,38.7,30.5,18.6,24.0,21.3,17.0,94,71,51,30.02,29.54,8,2,16,0.00
2013-3-25,36.3,33.4,30.9,33.0,30.3,26.0,94,89,67,29.75,29.46,8,3,12,0.15
2013-3-26,41.1,34.3,30.4,33.0,30.6,28.0,94,87,68,30.03,29.75,8,2,13,0.04
2013-3-27,40.4,35.3,32.1,32.0,29.9,27.0,95,81,59,30.12,30.02,8,2,13,0.03
2013-3-28,40.2,35.2,31.8,34.0,31.7,30.0,95,87,73,30.25,30.09,7,1,10,0.13
2013-3-29,51.7,39.8,29.3,34.0,29.0,24.0,93,69,37,30.24,30.15,6,1,11,0.00
2013-3-30,54.5,38.6,23.6,32.0,25.8,22.0,95,66,29,30.24,30.02,5,1,8,0.00
2013-3-31,50.3,43.5,34.8,45.0,36.2,25.0,96,77,48,30.01,29.68,5,1,9,0.11
2013-4-1,45.9,36.6,29.6,42.0,23.8,12.0,95,63,38,30.01,29.66,11,3,20,0.00
2013-4-2,37.5,30.1,22.4,24.0,16.8,10.0,84,60,33,30.16,30.01,11,2,18,0.00
2013-4-3,34.4,29.3,22.1,20.0,16.0,12.0,79,59,40,30.42,30.15,9,2,24,0.00
2013-4-4,54.1,34.5,16.9,27.0,15.7,7.0,93,56,17,30.38,29.95,5,1,9,0.00
2013-4-5,46.9,34.4,25.0,32.0,24.7,20.0,89,69,42,30.19,29.91,15,2,16,0.00
2013-4-6,53.4,38.3,20.1,25.0,19.8,15.0,93,55,22,30.28,29.99,8,2,10,0.00
2013-4-7,70.2,58.6,42.6,46.0,37.7,21.0,84,47,32,30.02,29.84,11,4,22,0.00
2013-4-8,70.7,53.9,33.0,50.0,42.9,32.0,96,70,44,30.06,29.86,9,1,12,0.00
2013-4-9,76.0,63.7,45.0,56.0,51.6,43.0,94,67,49,30.11,29.87,6,1,14,0.24
2013-4-10,75.3,64.4,53.1,65.0,56.5,51.0,97,77,54,29.93,29.80,8,1,20,1.23
2013-4-11,61.8,53.1,48.7,57.0,50.4,46.0,97,90,84,29.87,29.63,10,3,14,0.33
2013-4-12,59.9,50.4,39.6,58.0,46.5,34.0,98,86,68,29.85,29.48,13,3,21,0.86
2013-4-13,44.6,41.4,34.9,36.0,33.5,29.0,85,74,66,30.02,29.84,10,2,12,0.00
2013-4-14,54.5,42.2,29.4,37.0,32.1,28.0,93,70,48,30.15,30.02,5,1,8,0.00
2013-4-15,68.6,58.0,47.4,51.0,44.6,35.0,75,62,47,30.09,29.99,10,3,17,0.00
2013-4-16,72.7,59.5,49.7,60.0,52.7,48.0,95,79,62,30.21,30.04,8,2,13,0.07
2013-4-17,71.2,57.0,45.8,51.0,42.5,37.0,97,63,31,30.29,30.09,6,1,10,0.01
2013-4-18,84.1,71.0,59.4,62.0,57.5,51.0,86,64,42,30.11,29.74,14,4,15,0.00
2013-4-19,70.8,57.2,41.0,60.0,47.1,29.0,92,70,59,29.83,29.47,13,5,20,0.22
2013-4-20,42.3,37.8,29.6,31.0,27.0,22.0,82,66,52,30.40,29.84,11,3,17,0.00
2013-4-21,52.2,38.2,25.2,32.0,24.2,19.0,94,62,29,30.61,30.41,7,1,11,0.00
2013-4-22,62.1,49.4,35.7,35.0,29.6,24.0,78,48,33,30.48,30.28,9,3,13,0.00
2013-4-23,70.3,54.7,39.5,42.0,36.0,30.0,77,52,30,30.28,29.95,6,2,11,0.00
2013-4-24,58.6,49.6,36.3,56.0,44.4,34.0,94,84,45,30.14,29.70,6,2,14,0.72
2013-4-25,55.4,42.0,31.2,39.0,34.0,30.0,96,77,40,30.33,30.14,12,2,15,0.06
2013-4-26,58.7,44.5,31.5,42.0,32.4,27.0,97,68,31,30.47,30.33,3,1,6,0.01
2013-4-27,72.8,54.2,33.4,41.0,34.9,30.0,94,55,24,30.40,30.16,6,1,10,0.00
2013-4-28,59.6,54.7,51.3,52.0,46.9,40.0,93,77,48,30.16,29.94,10,4,13,0.17
2013-4-29,61.3,55.4,51.0,57.0,52.7,49.0,96,91,83,30.02,29.93,5,2,9,0.11
2013-4-30,71.2,61.3,51.8,56.0,53.3,51.0,97,77,54,30.19,30.03,10,2,12,0.00
2013-5-1,75.4,63.6,53.2,52.0,49.7,39.0,88,63,38,30.32,30.19,6,2,9,0.00
2013-5-2,76.0,64.5,50.5,45.0,37.4,29.0,63,40,18,30.37,30.21,6,2,12,0.00
2013-5-3,73.1,63.6,52.0,46.0,42.0,38.0,62,47,31,30.27,30.16,10,4,16,0.00
2013-5-4,70.7,60.7,49.1,48.0,42.2,37.0,77,53,31,30.22,30.10,8,3,13,0.00
2013-5-5,73.7,61.5,45.9,45.0,35.6,21.0,87,45,14,30.16,30.03,10,3,16,0.00
2013-5-6,72.0,60.5,48.0,52.0,44.5,32.0,79,57,38,30.11,30.01,8,3,12,0.00
2013-5-7,73.2,63.5,55.7,55.0,52.6,50.0,85,69,45,30.07,29.98,8,2,15,0.00
2013-5-8,69.8,61.0,54.9,59.0,55.0,52.0,97,81,54,30.01,29.93,4,1,9,1.07
2013-5-9,76.0,61.4,51.3,60.0,52.0,41.0,98,76,36,29.99,29.92,5,1,9,0.01
2013-5-10,74.3,61.4,51.4,64.0,56.7,49.0,97,86,66,29.99,29.78,4,1,9,0.39
2013-5-11,60.1,50.9,44.4,59.0,48.4,43.0,97,91,81,29.84,29.75,4,1,7,0.24
2013-5-12,50.2,42.7,33.7,47.0,34.8,29.0,96,75,48,30.05,29.80,13,2,23,0.09
2013-5-13,47.8,39.6,30.9,36.0,29.8,26.0,97,71,44,30.17,30.03,7,1,13,0.00
2013-5-14,52.8,43.5,30.0,41.0,34.9,29.0,96,74,52,30.17,29.90,5,1,8,0.00
2013-5-15,83.9,63.9,47.9,63.0,51.2,40.0,87,66,42,29.90,29.72,6,1,16,0.02
2013-5-16,79.6,64.8,50.6,55.0,47.5,40.0,96,61,25,30.00,29.78,6,1,13,0.00
2013-5-17,80.1,63.0,45.8,48.0,45.1,40.0,95,58,29,30.15,30.00,8,1,8,0.00
2013-5-18,82.4,67.9,54.8,60.0,50.0,43.0,78,55,33,30.18,30.05,4,1,7,0.00
2013-5-19,77.3,68.3,58.7,64.0,60.7,57.0,93,78,62,30.13,30.00,5,1,7,0.00
2013-5-20,84.6,71.7,58.7,69.0,64.0,58.0,97,78,57,30.05,29.90,4,0,6,0.00
2013-5-21,88.1,75.3,63.8,71.0,65.9,63.0,98,75,45,29.96,29.82,5,1,12,0.00
2013-5-22,86.7,74.8,66.6,67.0,64.1,60.0,90,71,45,29.88,29.74,5,1,12,0.00
2013-5-23,76.7,63.9,45.3,64.0,59.0,44.0,96,85,55,29.93,29.76,6,1,14,0.15
2013-5-24,45.1,41.7,35.3,44.0,37.3,33.0,95,84,69,30.27,29.93,7,2,15,0.04
2013-5-25,58.4,45.6,31.9,41.0,34.3,31.0,97,69,43,30.31,30.24,11,2,16,0.00
2013-5-26,64.1,49.3,33.5,42.0,36.0,32.0,97,65,32,30.29,30.23,6,1,14,0.00
2013-5-27,67.3,51.9,35.0,49.0,41.6,34.0,97,72,36,30.29,30.12,2,0,6,0.02
2013-5-28,76.5,64.2,51.5,68.0,59.8,48.0,97,86,72,30.12,29.95,2,0,5,0.56
2013-5-29,86.5,75.0,64.7,67.0,63.3,60.0,90,68,49,30.09,29.98,7,1,12,0.00
2013-5-30,88.5,73.6,60.3,71.0,63.6,59.0,97,74,39,30.19,30.09,6,0,8,0.01
2013-5-31,87.4,74.1,60.1,68.0,64.2,59.0,98,74,44,30.12,29.98,4,1,9,0.04
2013-6-1,85.7,75.0,64.7,70.0,66.4,64.0,96,76,56,30.03,29.79,6,1,11,0.00
2013-6-2,78.6,70.6,63.9,67.0,62.6,58.0,97,77,51,29.91,29.77,10,1,19,0.42
2013-6-3,64.5,56.3,44.2,58.0,47.1,38.0,93,73,45,30.09,29.90,6,1,11,0.00
2013-6-4,70.6,55.4,40.4,51.0,44.9,39.0,98,71,42,30.18,30.09,5,1,13,0.00
2013-6-5,80.0,63.8,45.6,60.0,49.6,43.0,92,63,36,30.16,29.95,4,1,7,0.00
2013-6-6,68.5,64.5,59.1,65.0,62.2,58.0,97,93,72,29.96,29.78,4,0,5,1.67
2013-6-7,63.4,58.2,55.7,59.0,56.1,53.0,98,93,84,29.87,29.80,5,1,10,0.01
2013-6-8,70.7,60.6,54.2,57.0,54.8,53.0,96,82,58,30.13,29.87,2,0,8,0.00
2013-6-9,78.1,65.1,49.9,62.0,56.3,49.0,98,76,50,30.19,30.05,3,1,7,0.00
2013-6-10,72.6,68.2,62.1,70.0,65.3,61.0,97,90,78,30.04,29.77,5,1,6,0.13
2013-6-11,73.8,66.3,61.1,65.0,62.8,60.0,98,89,71,29.90,29.77,6,1,11,0.10
2013-6-12,79.0,70.2,61.4,69.0,65.1,61.0,98,85,66,29.93,29.77,1,0,5,0.01
2013-6-13,68.9,63.5,56.0,67.0,61.0,54.0,97,92,78,29.83,29.50,7,1,20,0.39
2013-6-14,72.3,61.7,52.2,60.0,56.1,51.0,98,83,59,30.07,29.83,5,1,11,0.00
2013-6-15,77.8,63.3,46.2,58.0,51.2,45.0,98,69,37,30.14,30.00,3,0,6,0.00
2013-6-16,78.2,67.9,61.1,68.0,63.5,58.0,97,86,67,30.03,29.86,6,1,11,0.41
2013-6-17,83.7,72.1,61.4,68.0,61.6,54.0,98,73,37,29.97,29.91,4,1,10,0.01
2013-6-18,76.7,67.1,58.1,63.0,58.7,50.0,91,75,61,30.01,29.89,8,1,13,0.00
2013-6-19,75.5,62.0,47.3,53.0,48.9,46.0,94,65,39,30.18,30.01,7,1,9,0.00
2013-6-20,81.7,65.9,49.3,59.0,52.6,48.0,96,67,35,30.25,30.18,3,0,9,0.00
2013-6-21,85.6,69.1,52.3,61.0,57.5,52.0,98,71,39,30.28,30.18,2,0,3,0.00
2013-6-22,89.0,74.4,58.9,69.0,64.2,58.0,97,73,47,30.21,30.08,4,0,9,0.00
2013-6-23,90.3,77.8,66.0,72.0,67.6,65.0,98,74,46,30.16,30.05,4,0,10,0.00
2013-6-24,89.5,77.6,66.0,68.0,66.0,65.0,96,70,44,30.15,30.00,5,0,8,0.00
2013-6-25,87.3,73.1,65.4,76.0,68.0,65.0,97,85,61,30.05,29.90,11,1,17,1.80
2013-6-26,82.9,71.7,65.6,71.0,67.3,65.0,98,87,65,29.96,29.83,4,0,9,0.13
2013-6-27,72.1,68.3,64.7,69.0,67.1,64.0,98,96,87,29.83,29.66,5,0,7,0.84
2013-6-28,80.3,68.6,63.3,69.0,65.3,62.0,98,90,63,29.66,29.52,7,0,15,0.73
2013-6-29,78.1,66.5,60.6,67.0,63.8,60.0,98,91,66,29.72,29.54,6,0,8,0.02
2013-6-30,79.4,69.4,60.9,68.0,65.1,60.0,98,87,67,29.89,29.70,3,0,6,0.01
2013-7-1,72.9,68.0,64.9,68.0,64.8,63.0,96,89,77,30.00,29.86,5,1,9,0.19
2013-7-2,83.9,72.2,63.9,71.0,67.0,63.0,96,84,61,30.08,29.95,4,0,5,0.05
2013-7-3,86.8,75.2,66.9,72.0,69.1,66.0,98,83,57,30.18,30.08,4,0,8,0.32
2013-7-4,82.8,74.2,67.8,72.0,69.3,67.0,98,86,61,30.23,30.16,2,0,7,0.03
2013-7-5,84.5,73.9,68.7,71.0,69.3,68.0,98,86,64,30.18,30.11,3,1,10,0.01
2013-7-6,87.0,74.3,67.5,73.0,69.9,67.0,98,87,59,30.19,30.06,4,0,9,0.26
2013-7-7,79.6,73.3,67.4,71.0,68.2,66.0,98,85,66,30.11,30.01,6,0,8,0.00
2013-7-8,84.9,72.7,64.5,71.0,66.9,64.0,97,83,57,30.13,30.05,2,0,9,0.09
2013-7-9,85.6,73.9,67.3,76.0,70.7,67.0,98,90,70,30.10,29.96,3,0,13,0.15
2013-7-10,85.1,70.6,64.7,78.0,68.8,64.0,98,94,78,30.00,29.83,3,0,11,3.40
2013-7-11,75.3,67.5,60.1,65.0,60.2,56.0,98,79,53,30.03,29.92,4,1,10,0.00
2013-7-12,77.8,67.4,56.0,64.0,59.8,55.0,98,78,53,30.15,30.04,5,1,9,0.00
2013-7-13,79.7,71.1,59.8,69.0,63.9,58.0,95,79,61,30.26,30.13,3,0,6,0.00
2013-7-14,87.7,77.0,65.7,75.0,69.5,65.0,97,79,56,30.31,30.25,2,0,5,0.00
2013-7-15,92.5,77.3,67.7,76.0,71.5,67.0,98,84,52,30.36,30.27,5,0,8,0.31
2013-7-16,88.0,76.7,69.3,79.0,73.5,69.0,98,90,68,30.35,30.26,1,0,7,0.15
2013-7-17,88.2,77.6,69.6,80.0,74.5,69.0,99,90,71,30.32,30.18,2,0,5,0.21
2013-7-18,94.2,79.7,70.0,79.0,74.1,69.0,98,84,59,30.21,30.04,2,0,7,0.01
2013-7-19,91.4,80.5,72.0,77.0,73.0,68.0,98,80,56,30.05,29.86,8,1,10,0.00
2013-7-20,81.2,73.0,66.9,71.0,68.8,66.0,97,87,69,29.96,29.85,6,0,12,0.49
2013-7-21,85.4,74.2,64.8,71.0,66.7,64.0,98,79,54,30.00,29.93,3,0,6,0.00
2013-7-22,80.8,70.4,63.8,72.0,67.1,62.0,96,89,72,29.98,29.79,1,0,4,0.37
2013-7-23,82.8,70.7,66.3,70.0,66.7,63.0,98,88,61,29.80,29.70,7,0,9,0.29
2013-7-24,69.3,62.0,52.7,63.0,54.6,51.0,95,78,56,30.04,29.79,7,1,11,0.00
2013-7-25,75.4,62.3,48.9,57.0,52.0,47.0,97,72,45,30.11,30.03,6,1,8,0.00
2013-7-26,80.6,66.2,51.6,61.0,56.5,51.0,97,75,44,30.12,30.01,3,0,5,0.00
2013-7-27,74.4,65.9,58.4,67.0,62.8,58.0,97,90,73,30.01,29.84,3,0,7,0.17
2013-7-28,72.3,63.4,56.2,61.0,57.2,53.0,98,82,52,30.03,29.85,6,1,10,0.00
2013-7-29,72.4,61.4,52.9,57.0,54.6,52.0,96,80,50,30.20,30.03,4,0,11,0.00
2013-7-30,77.3,63.9,50.9,62.0,56.7,50.0,98,80,49,30.25,30.17,4,0,7,0.00
2013-7-31,76.6,65.9,56.6,66.0,61.1,56.0,98,85,62,30.18,29.96,2,0,3,0.00
2013-8-1,77.9,68.6,60.9,66.0,63.1,60.0,97,84,62,29.96,29.87,5,1,13,0.23
2013-8-2,76.3,65.7,55.8,64.0,59.1,55.0,98,81,55,29.99,29.91,4,1,9,0.32
2013-8-3,77.4,68.7,57.1,66.0,60.3,53.0,97,77,49,30.02,29.92,10,1,11,0.11
2013-8-4,72.3,62.7,54.5,59.0,56.2,54.0,98,81,57,30.12,30.00,6,1,12,0.05
2013-8-5,72.2,61.2,48.8,58.0,53.1,48.0,98,78,47,30.14,30.05,2,0,7,0.00
2013-8-6,79.7,66.7,53.4,63.0,57.5,53.0,97,75,48,30.05,29.99,2,0,4,0.00
2013-8-7,79.6,68.2,61.2,70.0,64.8,59.0,97,89,67,30.01,29.91,3,0,13,1.00
2013-8-8,81.1,70.2,66.1,74.0,68.5,64.0,98,94,79,30.01,29.92,8,0,15,1.59
2013-8-9,77.9,68.9,59.2,69.0,65.6,58.0,99,90,63,30.04,29.91,5,0,7,0.56
2013-8-10,78.8,66.7,56.5,63.0,59.1,56.0,98,79,55,30.13,30.04,4,1,7,0.00
2013-8-11,80.1,68.7,61.2,63.0,59.0,55.0,96,73,48,30.16,30.05,2,0,5,0.00
2013-8-12,77.5,67.8,58.2,67.0,63.1,57.0,98,86,65,30.08,29.88,5,0,11,0.00
2013-8-13,71.8,64.8,51.0,66.0,59.5,49.0,97,83,65,29.98,29.81,7,2,13,0.00
2013-8-14,67.0,56.6,49.3,55.0,51.1,48.0,96,83,57,30.16,29.98,7,1,10,0.01
2013-8-15,72.7,58.8,46.4,57.0,51.2,46.0,98,79,49,30.21,30.13,3,0,5,0.00
2013-8-16,76.1,62.7,51.1,60.0,53.7,50.0,98,76,43,30.21,30.15,2,0,5,0.00
2013-8-17,77.6,65.4,54.3,60.0,56.6,53.0,95,75,50,30.28,30.21,4,0,8,0.00
2013-8-18,73.7,66.1,58.4,65.0,60.6,56.0,92,83,69,30.25,30.16,3,0,4,0.00
2013-8-19,81.1,68.7,60.4,68.0,63.5,59.0,97,85,55,30.17,30.09,7,0,7,0.00
2013-8-20,84.1,68.9,55.3,68.0,62.1,55.0,98,81,51,30.20,30.12,4,0,6,0.01
2013-8-21,85.2,70.8,58.2,70.0,63.8,58.0,98,81,48,30.22,30.08,2,0,4,0.00
2013-8-22,81.9,71.8,63.5,70.0,66.5,63.0,98,84,67,30.11,29.99,3,0,11,0.00
2013-8-23,80.5,70.3,59.9,65.0,59.8,52.0,97,73,39,30.20,30.02,5,0,9,0.01
2013-8-24,81.2,65.4,53.6,59.0,55.2,51.0,96,73,37,30.34,30.20,4,0,5,0.00
2013-8-25,82.7,66.9,52.2,65.0,58.8,51.0,98,78,47,30.37,30.23,4,0,7,0.00
2013-8-26,85.6,71.1,58.7,68.0,63.9,58.0,98,80,52,30.26,30.02,8,0,10,0.11
2013-8-27,80.1,72.9,68.0,73.0,70.1,67.0,98,91,79,30.03,29.95,3,0,10,0.25
2013-8-28,75.0,71.3,69.0,72.0,70.2,68.0,98,96,90,29.97,29.84,4,0,7,0.95
2013-8-29,85.8,73.8,67.5,71.0,68.4,66.0,98,85,52,30.07,29.96,4,1,5,0.01
2013-8-30,86.5,73.4,62.1,72.0,67.8,62.0,99,84,58,30.04,29.85,4,0,7,0.00
2013-8-31,85.4,75.9,69.3,74.0,70.6,68.0,96,84,65,29.86,29.79,4,0,9,0.00
2013-9-1,82.1,73.5,67.4,73.0,70.2,67.0,98,89,71,29.86,29.79,2,0,6,0.00
2013-9-2,82.1,71.7,63.2,72.0,68.1,62.0,98,89,69,29.86,29.77,8,1,10,0.00
2013-9-3,63.6,61.2,54.6,62.0,57.5,54.0,97,88,77,30.05,29.86,3,0,7,0.00
2013-9-4,77.5,62.9,50.0,61.0,56.6,50.0,98,82,54,30.12,30.04,5,1,9,0.00
2013-9-5,69.7,61.9,48.8,60.0,52.6,47.0,96,74,47,30.23,30.05,9,1,11,0.00
2013-9-6,73.7,56.6,43.2,54.0,47.5,42.0,98,76,38,30.30,30.14,3,0,4,0.00
2013-9-7,79.2,63.3,46.3,65.0,55.3,46.0,98,78,45,30.14,29.95,5,0,9,0.01
2013-9-8,73.2,65.7,56.4,66.0,60.7,52.0,98,85,63,30.10,29.92,5,1,9,0.00
2013-9-9,76.2,64.5,52.5,70.0,60.5,50.0,98,87,75,30.11,30.02,3,0,4,0.03
2013-9-10,91.7,77.8,67.7,77.0,72.2,67.0,98,84,59,30.13,30.02,4,0,10,0.01
2013-9-11,90.7,77.0,70.6,77.0,72.8,70.0,98,88,58,30.14,30.01,4,0,12,0.24
2013-9-12,73.7,67.9,58.7,71.0,66.4,58.0,98,95,84,30.02,29.82,6,0,7,0.30
2013-9-13,60.6,56.3,50.9,58.0,51.6,45.0,98,85,62,30.05,29.84,7,1,15,0.21
2013-9-14,64.7,52.7,44.7,48.0,44.9,42.0,97,77,46,30.17,30.04,4,1,8,0.00
2013-9-15,67.2,55.1,42.2,57.0,49.7,41.0,98,84,57,30.19,30.07,2,0,4,0.01
2013-9-16,67.5,57.8,48.0,58.0,53.5,47.0,97,86,65,30.34,30.10,6,1,14,0.04
2013-9-17,68.2,51.6,39.9,48.0,43.0,39.0,97,76,38,30.43,30.28,5,1,7,0.01
2013-9-18,74.5,57.1,42.7,57.0,49.9,41.0,96,79,51,30.28,30.12,4,0,4,0.00
2013-9-19,74.8,63.0,52.8,64.0,59.0,52.0,97,88,68,30.15,30.04,3,0,7,0.00
2013-9-20,76.7,66.9,56.7,71.0,64.8,56.0,98,93,82,30.06,29.82,3,0,6,0.00
2013-9-21,69.3,62.8,53.3,68.0,61.6,53.0,98,96,93,29.82,29.68,4,0,11,1.28
2013-9-22,58.2,53.4,50.2,54.0,50.6,48.0,98,91,72,30.05,29.80,5,1,10,0.03
2013-9-23,56.1,50.4,41.6,49.0,45.4,41.0,97,84,65,30.16,30.04,3,0,6,0.00
2013-9-24,69.9,50.4,35.6,53.0,44.9,35.0,98,84,50,30.15,29.99,3,0,6,0.00
2013-9-25,74.7,55.6,43.1,54.0,48.6,43.0,98,81,40,30.01,29.92,4,0,6,0.01
2013-9-26,74.0,58.3,45.5,54.0,49.9,45.0,97,77,39,30.13,29.98,4,0,8,0.00
2013-9-27,72.9,58.5,50.4,54.0,51.5,49.0,97,80,47,30.23,30.13,5,1,8,0.00
2013-9-28,71.7,59.0,46.9,57.0,52.4,46.0,98,80,55,30.28,30.17,3,1,8,0.01
2013-9-29,72.0,59.7,49.9,61.0,54.7,48.0,97,84,65,30.16,30.02,2,0,5,0.00
2013-9-30,69.7,60.7,53.6,61.0,57.6,53.0,98,90,75,30.05,30.00,5,0,7,0.00
2013-10-1,76.0,62.1,52.7,63.0,57.6,52.0,98,87,57,30.09,30.01,4,0,12,0.00
2013-10-2,79.9,64.4,54.6,68.0,60.8,54.0,99,89,63,30.11,30.03,6,0,9,0.01
2013-10-3,76.2,63.2,52.8,70.0,61.4,52.0,98,94,77,30.11,30.02,3,0,6,0.21
2013-10-4,80.3,67.6,62.1,69.0,64.8,62.0,99,92,61,30.10,30.03,6,0,9,0.29
2013-10-5,76.8,67.7,61.8,71.0,66.3,61.0,99,95,80,30.09,29.99,2,0,6,0.03
2013-10-6,80.9,71.2,65.8,70.0,66.4,62.0,98,86,62,29.99,29.73,3,1,14,0.01
2013-10-7,71.6,55.1,48.7,63.0,49.8,44.0,97,83,67,30.12,29.72,7,1,12,0.63
2013-10-8,65.9,51.7,41.5,51.0,45.6,41.0,98,82,45,30.31,30.12,4,0,11,0.01
2013-10-9,68.1,52.3,40.8,47.0,43.5,40.0,98,76,40,30.36,30.26,7,1,8,0.00
2013-10-10,70.1,54.0,43.3,48.0,42.7,35.0,93,70,28,30.26,30.12,3,0,5,0.00
2013-10-11,72.3,55.1,44.7,51.0,46.9,43.0,96,77,41,30.14,30.07,5,0,6,0.00
2013-10-12,74.3,59.0,46.2,62.0,53.5,44.0,95,83,63,30.17,30.09,4,0,6,0.00
2013-10-13,68.5,62.6,59.1,62.0,58.0,54.0,97,85,73,30.28,30.17,0,0,0,0.17
2013-10-14,66.0,56.9,47.7,59.0,51.0,44.0,97,82,61,30.35,30.24,4,0,7,0.08
2013-10-15,69.0,57.3,43.8,61.0,52.7,-99.9,98,87,74,30.25,29.97,2,-10,5,0.00
2013-10-16,63.6,59.7,52.4,61.0,58.0,50.0,97,93,86,29.97,29.83,4,1,10,0.45
2013-10-17,59.8,50.8,45.8,52.0,48.7,45.0,98,93,71,29.93,29.73,2,0,8,0.36
2013-10-18,61.4,50.4,43.8,46.0,43.8,41.0,95,80,49,29.99,29.86,5,1,11,0.00
2013-10-19,55.5,46.1,39.7,48.0,42.9,38.0,97,89,71,29.95,29.70,7,1,13,0.19
2013-10-20,55.9,44.7,36.0,43.0,39.2,35.0,97,82,55,30.02,29.89,6,1,14,0.01
2013-10-21,63.1,51.8,39.7,48.0,40.3,37.0,92,67,43,30.03,29.84,4,1,11,0.00
2013-10-22,51.8,43.6,36.8,48.0,36.2,29.0,95,77,46,29.94,29.84,9,1,11,0.21
2013-10-23,41.5,37.5,33.4,39.0,34.6,32.0,97,89,73,29.91,29.76,5,0,6,0.17
2013-10-24,42.9,35.2,31.5,35.0,32.8,31.0,97,91,66,30.11,29.89,6,0,9,0.06
2013-10-25,47.4,38.6,33.5,36.0,33.0,29.0,96,82,57,30.29,30.11,10,1,14,0.06
2013-10-26,45.1,39.3,32.2,37.0,30.0,28.0,91,71,51,30.21,29.85,7,2,13,0.00
2013-10-27,47.2,38.6,31.1,37.0,33.6,30.0,97,84,57,30.09,29.94,5,0,10,0.00
2013-10-28,56.6,40.6,28.0,41.0,35.0,27.0,98,82,50,30.32,30.09,2,0,5,0.01
2013-10-29,55.9,41.9,30.8,42.0,36.1,30.0,98,82,52,30.40,30.27,4,0,5,0.00
2013-10-30,65.6,47.6,34.5,47.0,40.4,34.0,97,79,45,30.26,30.10,2,0,5,0.00
2013-10-31,65.0,58.8,49.3,60.0,56.2,47.0,97,91,76,30.09,29.41,8,2,12,0.51
2013-11-1,63.3,55.1,48.2,59.0,47.9,42.0,93,77,60,29.70,29.31,11,2,17,0.20
2013-11-2,48.6,45.4,40.5,46.0,43.2,38.0,97,92,83,29.97,29.66,6,1,13,0.18
2013-11-3,44.2,36.6,28.8,39.0,30.9,24.0,97,81,58,30.47,29.98,9,1,10,0.00
2013-11-4,42.9,35.3,27.9,26.0,22.2,17.0,82,61,36,30.57,30.41,9,2,12,0.00
2013-11-5,57.1,46.5,39.3,38.0,31.7,25.0,67,57,48,30.48,30.32,5,1,9,0.00
2013-11-6,68.6,55.2,40.9,56.0,45.0,28.0,96,70,55,30.31,29.88,8,2,12,0.17
2013-11-7,57.2,42.0,33.6,56.0,37.5,28.0,97,85,66,30.10,29.87,9,2,15,0.74
2013-11-8,41.7,35.7,28.6,33.0,30.8,26.0,96,83,62,30.27,30.05,7,1,13,0.11
2013-11-9,54.3,42.9,27.1,38.0,30.6,26.0,96,66,41,30.26,29.90,8,2,14,0.00
2013-11-10,52.5,44.1,35.8,40.0,33.6,28.0,79,67,56,30.25,29.91,10,2,20,0.00
2013-11-11,46.0,37.7,29.6,37.0,31.3,28.0,95,79,54,30.24,30.01,7,1,13,0.11
2013-11-12,34.5,29.2,26.7,28.0,23.9,19.0,95,81,58,30.44,30.15,7,2,13,0.04
2013-11-13,35.4,30.1,26.8,24.0,21.2,19.0,82,70,58,30.49,30.29,7,1,11,0.01
2013-11-14,48.5,35.6,25.6,25.0,21.3,19.0,79,58,32,30.29,30.14,4,1,9,0.00
2013-11-15,54.3,43.6,35.7,35.0,25.0,21.0,77,50,30,30.17,30.10,5,1,10,0.00
2013-11-16,58.1,45.6,30.1,47.0,39.8,29.0,96,81,64,30.24,30.01,5,1,10,0.00
2013-11-17,59.3,55.0,51.2,57.0,52.3,47.0,96,91,75,30.00,29.47,11,3,25,0.78
2013-11-18,54.3,44.8,35.1,46.0,35.2,27.0,79,69,57,30.06,29.57,12,4,26,0.00
2013-11-19,36.9,33.5,24.7,28.0,25.7,23.0,92,74,64,30.40,30.06,10,1,14,0.00
2013-11-20,44.9,33.7,21.6,23.0,19.7,13.0,95,61,31,30.48,30.34,8,2,13,0.00
2013-11-21,44.5,39.1,34.3,40.0,30.8,18.0,86,73,52,30.40,30.20,4,1,5,0.04
2013-11-22,49.9,44.1,33.6,49.0,42.4,30.0,97,93,78,30.25,30.06,9,1,19,0.29
2013-11-23,33.8,27.3,18.6,29.0,22.5,11.0,96,82,63,30.30,30.13,16,2,23,0.00
2013-11-24,23.8,18.5,11.7,19.0,13.9,10.0,92,82,60,30.48,30.30,9,2,16,0.00
2013-11-25,32.4,22.8,10.7,27.0,13.4,8.0,90,70,43,30.44,30.16,7,1,11,0.00
2013-11-26,33.3,31.5,29.3,32.0,29.8,26.0,96,93,87,30.18,29.77,2,0,6,0.00
2013-11-27,31.5,27.1,21.1,30.0,24.6,18.0,96,90,74,30.07,29.72,0,0,0,0.00
2013-11-28,26.3,22.7,15.2,21.0,18.2,12.0,91,83,72,30.39,30.07,0,0,0,0.00
2013-11-29,32.9,24.9,20.2,24.0,20.6,18.0,93,84,64,30.64,30.39,0,0,0,0.00
2013-11-30,35.6,27.1,21.3,26.0,21.8,19.0,92,81,66,30.61,30.19,0,0,0,0.00
2013-12-1,39.4,30.5,20.2,31.0,26.9,19.0,95,87,71,30.18,29.95,0,0,2,0.09
2013-12-2,41.3,35.3,29.6,34.0,31.8,28.0,95,88,74,29.95,29.83,2,0,4,0.43
2013-12-3,47.1,36.9,28.3,40.0,33.6,27.0,96,88,70,29.92,29.86,3,0,3,0.18
2013-12-4,52.2,45.0,35.8,46.0,40.9,35.0,96,86,75,29.98,29.86,2,0,7,0.00
2013-12-5,59.6,51.5,35.2,58.0,47.5,33.0,95,86,78,30.07,29.82,6,2,14,0.13
2013-12-6,35.0,30.8,27.0,33.0,28.4,25.0,95,91,79,30.28,30.05,5,1,9,0.14
2013-12-7,27.0,23.2,16.6,25.0,18.2,13.0,93,81,68,30.57,30.27,7,1,10,0.00
2013-12-8,28.5,22.7,17.3,27.0,18.2,14.0,92,83,69,30.57,30.05,8,2,14,0.00
2013-12-9,35.6,32.2,28.0,35.0,28.9,22.0,97,87,77,30.10,29.91,13,2,15,0.03
2013-12-10,27.8,24.0,20.8,22.0,15.7,9.0,90,71,52,30.19,29.98,8,2,21,0.00
2013-12-11,23.2,20.4,16.7,19.0,15.0,12.0,90,80,65,30.32,30.20,9,1,14,0.00
2013-12-12,18.9,14.9,7.9,16.0,5.7,2.0,89,68,49,30.40,30.19,9,1,14,0.00
2013-12-13,28.7,22.2,15.2,18.0,13.1,4.0,87,68,58,30.24,30.16,5,1,7,0.00
2013-12-14,33.5,29.1,22.8,32.0,25.8,18.0,96,87,74,30.22,29.62,4,1,7,0.00
2013-12-15,34.2,25.8,16.2,34.0,22.5,11.0,97,87,76,29.99,29.59,8,2,21,0.03
2013-12-16,24.8,18.1,12.9,15.0,11.5,9.0,86,75,62,30.13,29.99,4,1,10,0.00
2013-12-17,28.0,25.0,20.2,27.0,21.8,15.0,95,87,75,30.00,29.89,5,1,10,0.00
2013-12-18,28.8,25.8,22.3,23.0,20.9,17.0,90,82,72,30.14,29.99,7,1,12,0.00
2013-12-19,46.1,34.5,24.3,33.0,26.6,18.0,89,73,56,30.05,29.98,3,0,7,0.23
2013-12-20,51.9,44.6,37.6,51.0,39.7,30.0,96,84,59,29.98,29.85,3,1,7,0.31
2013-12-21,59.4,55.2,51.4,59.0,54.3,50.0,98,96,92,29.85,29.61,6,2,9,1.05
2013-12-22,63.6,56.0,41.5,60.0,51.8,39.0,98,86,66,29.95,29.48,10,3,22,0.50
2013-12-23,42.2,34.5,28.7,40.0,30.8,21.0,95,86,71,30.26,29.95,8,1,16,0.07
2013-12-24,29.1,20.6,15.0,23.0,15.2,10.0,91,79,67,30.48,30.20,9,1,16,0.00
2013-12-25,25.5,19.0,10.3,23.0,13.7,8.0,92,80,67,30.47,30.17,7,1,9,0.00
2013-12-26,32.6,27.5,19.7,27.0,22.6,16.0,93,82,61,30.32,30.07,7,1,13,0.00
2013-12-27,38.8,30.6,20.3,30.0,24.8,17.0,89,79,68,30.32,30.20,4,0,8,0.01
2013-12-28,50.5,40.4,30.9,34.0,30.2,26.0,85,68,53,30.20,30.02,4,1,9,0.00
2013-12-29,40.8,38.8,31.8,40.0,33.8,28.0,96,83,62,30.02,29.68,5,0,13,0.23
2013-12-30,31.0,20.8,17.5,30.0,16.0,11.0,94,82,68,30.20,29.84,9,2,16,0.00
2013-12-31,21.1,18.4,12.3,19.0,14.0,9.0,91,83,71,30.27,30.02,8,1,17,0.00
2014-1-1,25.0,21.4,17.9,21.0,18.3,15.0,91,87,83,30.32,30.08,3,0,4,0.00
2014-1-2,22.5,17.9,9.5,20.0,15.4,7.0,92,89,88,30.08,29.75,8,2,18,0.00